createdAt,value
2023-03-28T00:00:30.402Z,5.15
2023-03-28T00:02:59.575Z,5.09
2023-03-28T00:05:28.191Z,5.14
2023-03-28T00:07:56.715Z,5.14
2023-03-28T00:10:24.890Z,5.14
2023-03-28T00:12:52.642Z,5.15
2023-03-28T00:15:20.447Z,5.18
2023-03-28T00:17:48.266Z,5.17
2023-03-28T00:20:17.895Z,5.19
2023-03-28T00:22:45.657Z,5.17
2023-03-28T00:25:13.432Z,5.18
2023-03-28T00:27:41.329Z,5.18
2023-03-28T00:30:10.930Z,5.20
2023-03-28T00:32:38.689Z,5.19
2023-03-28T00:35:07.459Z,5.18
2023-03-28T00:37:36.548Z,5.14
2023-03-28T00:40:07.416Z,5.14
2023-03-28T00:42:35.186Z,5.12
2023-03-28T00:45:02.883Z,5.13
2023-03-28T00:47:37.891Z,5.12
2023-03-28T00:50:10.942Z,5.13
2023-03-28T00:52:42.784Z,5.09
2023-03-28T00:55:14.823Z,5.08
2023-03-28T00:57:42.971Z,5.08
2023-03-28T01:00:12.749Z,5.08
2023-03-28T01:02:42.489Z,5.07
2023-03-28T01:05:10.925Z,5.08
2023-03-28T01:07:45.431Z,5.05
2023-03-28T01:10:13.914Z,5.06
2023-03-28T01:12:42.557Z,5.05
2023-03-28T01:15:11.537Z,5.05
2023-03-28T01:17:41.450Z,5.03
2023-03-28T01:20:37.042Z,5.01
2023-03-28T01:23:35.458Z,4.97
2023-03-28T01:26:32.217Z,4.98
2023-03-28T01:29:24.658Z,4.94
2023-03-28T01:32:13.270Z,4.96
2023-03-28T01:34:53.531Z,4.94
2023-03-28T01:37:32.623Z,4.92
2023-03-28T01:40:30.104Z,4.84
2023-03-28T01:43:11.273Z,4.79
2023-03-28T01:45:45.439Z,4.79
2023-03-28T01:48:19.046Z,4.80
2023-03-28T01:50:49.504Z,4.73
2023-03-28T01:53:23.598Z,4.75
2023-03-28T01:55:54.412Z,4.79
2023-03-28T01:58:26.199Z,4.79
2023-03-28T02:00:59.453Z,4.77
2023-03-28T02:03:29.718Z,4.78
2023-03-28T02:05:58.608Z,4.81
2023-03-28T02:08:30.390Z,4.82
2023-03-28T02:10:58.452Z,4.82
2023-03-28T02:13:29.400Z,4.83
2023-03-28T02:15:59.009Z,4.83
2023-03-28T02:18:29.831Z,4.84
2023-03-28T02:21:00.949Z,4.86
2023-03-28T02:23:32.803Z,4.85
2023-03-28T02:26:00.683Z,4.83
2023-03-28T02:28:29.021Z,4.82
2023-03-28T02:30:56.719Z,4.81
2023-03-28T02:33:35.060Z,4.73
2023-03-28T02:36:12.316Z,4.77
2023-03-28T02:38:46.408Z,4.76
2023-03-28T02:41:21.002Z,4.73
2023-03-28T02:43:55.558Z,4.70
2023-03-28T02:46:37.771Z,4.68
2023-03-28T02:49:27.986Z,4.64
2023-03-28T02:52:10.914Z,4.64
2023-03-28T02:54:44.943Z,4.61
2023-03-28T02:57:16.592Z,4.62
2023-03-28T02:59:48.061Z,4.61
2023-03-28T03:02:17.452Z,4.61
2023-03-28T03:04:45.521Z,4.59
2023-03-28T03:07:13.866Z,4.57
2023-03-28T03:09:45.897Z,4.57
2023-03-28T03:12:13.764Z,4.53
2023-03-28T03:14:42.155Z,4.52
2023-03-28T03:17:09.882Z,4.52
2023-03-28T03:19:37.573Z,4.51
2023-03-28T03:22:05.182Z,4.51
2023-03-28T03:24:34.595Z,4.47
2023-03-28T03:27:03.819Z,4.46
2023-03-28T03:29:38.253Z,4.46
2023-03-28T03:32:07.115Z,4.47
2023-03-28T03:34:36.747Z,4.49
2023-03-28T03:37:04.600Z,4.50
2023-03-28T03:39:32.307Z,4.49
2023-03-28T03:42:00.044Z,4.49
2023-03-28T03:44:29.789Z,4.47
2023-03-28T03:46:57.944Z,4.49
2023-03-28T03:49:25.763Z,4.50
2023-03-28T03:51:53.554Z,4.50
2023-03-28T03:54:21.290Z,4.49
2023-03-28T03:56:49.098Z,4.49
2023-03-28T03:59:17.199Z,4.47
2023-03-28T04:01:46.394Z,4.46
2023-03-28T04:04:14.173Z,4.43
2023-03-28T04:06:41.913Z,4.42
2023-03-28T04:09:09.879Z,4.42
2023-03-28T04:11:37.543Z,4.43
2023-03-28T04:14:05.393Z,4.43
2023-03-28T04:16:40.934Z,4.45
2023-03-28T04:19:13.877Z,4.45
2023-03-28T04:21:42.867Z,4.49
2023-03-28T04:24:15.340Z,4.48
2023-03-28T04:26:43.187Z,4.52
2023-03-28T04:29:11.272Z,4.53
2023-03-28T04:31:39.857Z,4.54
2023-03-28T04:34:08.841Z,4.54
2023-03-28T04:36:41.019Z,4.51
2023-03-28T04:39:08.973Z,4.50
2023-03-28T04:41:36.732Z,4.53
2023-03-28T04:44:04.460Z,4.46
2023-03-28T04:46:32.190Z,4.49
2023-03-28T04:48:59.922Z,4.46
2023-03-28T04:51:28.629Z,4.47
2023-03-28T04:53:57.770Z,4.46
2023-03-28T04:56:25.751Z,4.50
2023-03-28T04:58:53.518Z,4.50
2023-03-28T05:01:22.623Z,4.53
2023-03-28T05:03:50.595Z,4.53
2023-03-28T05:06:18.635Z,4.54
2023-03-28T05:08:46.347Z,4.50
2023-03-28T05:11:15.442Z,4.49
2023-03-28T05:13:43.154Z,4.46
2023-03-28T05:16:10.931Z,4.48
2023-03-28T05:18:38.650Z,4.46
2023-03-28T05:21:07.243Z,4.45
2023-03-28T05:23:34.934Z,4.45
2023-03-28T05:26:02.967Z,4.46
2023-03-28T05:28:32.441Z,4.47
2023-03-28T05:31:00.387Z,4.46
2023-03-28T05:33:28.199Z,4.51
2023-03-28T05:35:55.903Z,4.49
2023-03-28T05:38:23.644Z,4.44
2023-03-28T05:40:51.346Z,4.44
2023-03-28T05:43:19.025Z,4.46
2023-03-28T05:45:48.973Z,4.45
2023-03-28T05:48:16.743Z,4.43
2023-03-28T05:50:45.558Z,4.45
2023-03-28T05:53:13.244Z,4.44
2023-03-28T05:55:40.933Z,4.44
2023-03-28T05:58:08.702Z,4.46
2023-03-28T06:00:37.175Z,4.46
2023-03-28T06:03:07.485Z,4.43
2023-03-28T06:05:35.772Z,4.44
2023-03-28T06:08:03.540Z,4.40
2023-03-28T06:10:31.486Z,4.40
2023-03-28T06:12:59.158Z,4.33
2023-03-28T06:15:27.281Z,4.35
2023-03-28T06:17:55.119Z,4.35
2023-03-28T06:20:24.152Z,4.35
2023-03-28T06:22:52.160Z,4.36
2023-03-28T06:25:19.864Z,4.32
2023-03-28T06:27:47.569Z,4.30
2023-03-28T06:30:16.077Z,4.29
2023-03-28T06:32:43.873Z,4.29
2023-03-28T06:35:11.692Z,4.26
2023-03-28T06:37:40.862Z,4.26
2023-03-28T06:40:09.751Z,4.30
2023-03-28T06:42:37.547Z,4.29
2023-03-28T06:45:06.043Z,4.32
2023-03-28T06:47:33.801Z,4.35
2023-03-28T06:50:01.643Z,4.36
2023-03-28T06:52:29.498Z,4.37
2023-03-28T06:54:58.942Z,4.39
2023-03-28T06:57:26.739Z,4.44
2023-03-28T06:59:54.467Z,4.49
2023-03-28T07:02:22.320Z,4.50
2023-03-28T07:04:50.094Z,4.54
2023-03-28T07:07:17.777Z,4.61
2023-03-28T07:09:45.653Z,4.67
2023-03-28T07:12:14.702Z,4.74
2023-03-28T07:14:44.557Z,4.80
2023-03-28T07:17:12.457Z,4.91
2023-03-28T07:19:40.232Z,4.92
2023-03-28T07:22:07.942Z,4.97
2023-03-28T07:24:35.600Z,5.05
2023-03-28T07:27:14.800Z,5.12
2023-03-28T07:29:44.385Z,5.19
2023-03-28T07:32:12.334Z,5.24
2023-03-28T07:34:40.080Z,5.32
2023-03-28T07:37:08.908Z,5.34
2023-03-28T07:39:39.856Z,5.34
2023-03-28T07:42:11.000Z,5.35
2023-03-28T07:44:40.313Z,5.44
2023-03-28T07:47:11.731Z,5.51
2023-03-28T07:49:39.597Z,5.56
2023-03-28T07:52:07.440Z,5.64
2023-03-28T07:54:35.255Z,5.71
2023-03-28T07:57:03.049Z,5.81
2023-03-28T07:59:30.905Z,5.84
2023-03-28T08:01:58.651Z,5.90
2023-03-28T08:04:27.800Z,5.98
2023-03-28T08:06:56.130Z,6.03
2023-03-28T08:09:23.887Z,6.09
2023-03-28T08:11:51.605Z,6.12
2023-03-28T08:14:19.602Z,6.18
2023-03-28T08:16:47.493Z,6.23
2023-03-28T08:19:15.373Z,6.30
2023-03-28T08:21:44.736Z,6.33
2023-03-28T08:24:19.559Z,6.40
2023-03-28T08:26:53.523Z,6.48
2023-03-28T08:29:21.739Z,6.63
2023-03-28T08:31:49.580Z,6.72
2023-03-28T08:34:17.401Z,6.81
2023-03-28T08:36:47.413Z,6.89
2023-03-28T08:39:15.399Z,6.97
2023-03-28T08:42:11.495Z,7.05
2023-03-28T08:44:48.631Z,7.13
2023-03-28T08:47:18.771Z,7.19
2023-03-28T08:49:48.417Z,7.24
2023-03-28T08:52:20.214Z,7.29
2023-03-28T08:54:51.897Z,7.31
2023-03-28T08:57:22.046Z,7.37
2023-03-28T08:59:53.517Z,7.46
2023-03-28T09:02:22.804Z,7.51
2023-03-28T09:04:50.842Z,7.63
2023-03-28T09:07:26.568Z,7.65
2023-03-28T09:10:04.205Z,7.65
2023-03-28T09:12:40.886Z,7.63
2023-03-28T09:15:20.624Z,7.58
2023-03-28T09:18:01.882Z,7.57
2023-03-28T09:20:33.778Z,7.61
2023-03-28T09:23:13.920Z,7.64
2023-03-28T09:25:44.469Z,7.69
2023-03-28T09:28:24.797Z,7.78
2023-03-28T09:30:53.357Z,7.83
2023-03-28T09:33:25.660Z,7.87
2023-03-28T09:35:57.175Z,7.80
2023-03-28T09:38:30.711Z,7.84
2023-03-28T09:41:00.174Z,7.88
2023-03-28T09:43:32.464Z,7.98
2023-03-28T09:46:03.209Z,8.03
2023-03-28T09:48:33.103Z,8.03
2023-03-28T09:51:02.620Z,8.07
2023-03-28T09:53:33.522Z,8.16
2023-03-28T09:56:05.111Z,8.28
2023-03-28T09:58:49.899Z,8.35
2023-03-28T10:01:32.978Z,8.38
2023-03-28T10:04:01.372Z,8.33
2023-03-28T10:06:30.974Z,8.21
2023-03-28T10:09:18.336Z,8.15
2023-03-28T10:11:49.765Z,8.14
2023-03-28T10:14:33.628Z,8.12
2023-03-28T10:17:06.296Z,8.13
2023-03-28T10:19:35.987Z,8.17
2023-03-28T10:22:06.486Z,8.21
2023-03-28T10:24:37.160Z,8.14
2023-03-28T10:27:18.188Z,8.11
2023-03-28T10:29:46.703Z,8.13
2023-03-28T10:32:15.579Z,8.19
2023-03-28T10:34:43.230Z,8.16
2023-03-28T10:37:24.786Z,8.13
2023-03-28T10:40:06.802Z,8.14
2023-03-28T10:42:42.491Z,8.18
2023-03-28T10:45:21.205Z,8.18
2023-03-28T10:47:50.700Z,8.14
2023-03-28T10:50:24.185Z,8.12
2023-03-28T10:52:55.608Z,8.13
2023-03-28T10:55:27.399Z,8.13
2023-03-28T10:58:01.014Z,8.15
2023-03-28T11:00:32.576Z,8.14
2023-03-28T11:03:16.470Z,8.15
2023-03-28T11:06:05.654Z,8.17
2023-03-28T11:08:43.032Z,8.18
2023-03-28T11:11:29.238Z,8.18
2023-03-28T11:14:01.640Z,8.21
2023-03-28T11:16:39.494Z,8.33
2023-03-28T11:19:15.002Z,8.46
2023-03-28T11:21:46.245Z,8.51
2023-03-28T11:24:23.344Z,8.52
2023-03-28T11:27:12.414Z,8.65
2023-03-28T11:29:45.988Z,8.72
2023-03-28T11:32:19.462Z,8.76
2023-03-28T11:34:56.084Z,8.81
2023-03-28T11:37:27.883Z,8.81
2023-03-28T11:39:58.309Z,8.81
2023-03-28T11:42:30.013Z,8.91
2023-03-28T11:45:02.857Z,8.95
2023-03-28T11:47:34.069Z,9.08
2023-03-28T11:50:05.389Z,9.17
2023-03-28T11:52:36.851Z,9.24
2023-03-28T11:55:07.908Z,9.29
2023-03-28T11:57:40.220Z,9.28
2023-03-28T12:00:26.731Z,9.56
2023-03-28T12:03:09.958Z,9.78
2023-03-28T12:05:40.532Z,9.88
2023-03-28T12:08:12.541Z,9.84
2023-03-28T12:10:43.291Z,9.87
2023-03-28T12:13:16.143Z,9.76
2023-03-28T12:15:47.895Z,9.72
2023-03-28T12:18:19.063Z,9.74
2023-03-28T12:20:51.234Z,9.73
2023-03-28T12:23:23.896Z,9.78
2023-03-28T12:25:55.880Z,9.80
2023-03-28T12:28:28.425Z,9.72
2023-03-28T12:31:06.112Z,9.65
2023-03-28T12:33:44.611Z,9.67
2023-03-28T12:36:18.574Z,9.65
2023-03-28T12:38:50.034Z,9.63
2023-03-28T12:41:20.737Z,9.55
2023-03-28T12:43:52.416Z,9.47
2023-03-28T12:46:23.887Z,9.45
2023-03-28T12:48:54.804Z,9.49
2023-03-28T12:51:25.488Z,9.56
2023-03-28T12:54:02.826Z,9.60
2023-03-28T12:56:30.742Z,9.53
2023-03-28T12:58:59.979Z,9.53
2023-03-28T13:01:33.273Z,9.52
2023-03-28T13:04:07.580Z,9.47
2023-03-28T13:06:43.771Z,9.44
2023-03-28T13:09:27.380Z,9.47
2023-03-28T13:11:57.612Z,9.47
2023-03-28T13:14:36.365Z,9.53
2023-03-28T13:17:17.252Z,9.53
2023-03-28T13:19:52.295Z,9.60
2023-03-28T13:22:29.209Z,9.60
2023-03-28T13:25:21.145Z,9.58
2023-03-28T13:27:49.579Z,9.61
2023-03-28T13:30:20.402Z,9.65
2023-03-28T13:32:50.983Z,9.61
2023-03-28T13:35:46.337Z,9.61
2023-03-28T13:38:25.251Z,9.64
2023-03-28T13:40:55.849Z,9.67
2023-03-28T13:43:26.082Z,9.78
2023-03-28T13:45:58.745Z,9.81
2023-03-28T13:48:31.551Z,9.78
2023-03-28T13:51:00.845Z,9.77
2023-03-28T13:53:46.543Z,9.80
2023-03-28T13:56:23.325Z,9.84
2023-03-28T13:58:52.738Z,9.85
2023-03-28T14:01:25.810Z,9.86
2023-03-28T14:03:55.151Z,9.84
2023-03-28T14:06:24.630Z,9.81
2023-03-28T14:08:53.586Z,9.78
2023-03-28T14:11:24.312Z,9.74
2023-03-28T14:14:02.781Z,9.81
2023-03-28T14:16:32.005Z,9.82
2023-03-28T14:19:02.261Z,9.87
2023-03-28T14:21:29.976Z,9.88
2023-03-28T14:23:59.454Z,9.83
2023-03-28T14:26:28.789Z,9.73
2023-03-28T14:29:01.163Z,9.67
2023-03-28T14:31:32.085Z,9.62
2023-03-28T14:34:00.223Z,9.60
2023-03-28T14:36:31.120Z,9.63
2023-03-28T14:39:13.292Z,9.63
2023-03-28T14:41:43.092Z,9.62
2023-03-28T14:44:13.087Z,9.70
2023-03-28T14:46:42.289Z,9.82
2023-03-28T14:49:19.401Z,9.87
2023-03-28T14:51:48.596Z,9.99
2023-03-28T14:54:17.541Z,10.10
2023-03-28T14:56:45.941Z,10.09
2023-03-28T14:59:17.858Z,10.02
2023-03-28T15:01:47.959Z,10.03
2023-03-28T15:04:15.939Z,10.00
2023-03-28T15:06:43.721Z,9.97
2023-03-28T15:09:12.890Z,9.93
2023-03-28T15:11:43.558Z,9.90
2023-03-28T15:14:15.702Z,9.90
2023-03-28T15:16:45.657Z,9.96
2023-03-28T15:19:19.193Z,10.03
2023-03-28T15:21:53.938Z,10.03
2023-03-28T15:24:21.962Z,10.05
2023-03-28T15:26:53.766Z,10.07
2023-03-28T15:29:22.689Z,10.08
2023-03-28T15:31:50.645Z,10.03
2023-03-28T15:34:24.786Z,9.98
2023-03-28T15:36:54.380Z,9.97
2023-03-28T15:39:25.512Z,9.92
2023-03-28T15:41:55.668Z,9.89
2023-03-28T15:44:28.283Z,9.81
2023-03-28T15:46:58.640Z,9.81
2023-03-28T15:49:28.258Z,9.84
2023-03-28T15:51:57.356Z,9.85
2023-03-28T15:54:31.502Z,9.86
2023-03-28T15:57:02.525Z,9.82
2023-03-28T15:59:33.990Z,9.82
2023-03-28T16:02:32.438Z,9.78
2023-03-28T16:05:02.738Z,9.76
2023-03-28T16:07:34.476Z,9.74
2023-03-28T16:10:02.139Z,9.69
2023-03-28T16:12:29.898Z,9.64
2023-03-28T16:14:57.730Z,9.62
2023-03-28T16:17:26.395Z,9.64
2023-03-28T16:19:54.204Z,9.68
2023-03-28T16:22:23.350Z,9.70
2023-03-28T16:24:52.310Z,9.69
2023-03-28T16:27:20.884Z,9.68
2023-03-28T16:29:48.809Z,9.65
2023-03-28T16:32:17.103Z,9.63
2023-03-28T16:34:45.531Z,9.63
2023-03-28T16:37:13.216Z,9.64
2023-03-28T16:39:42.225Z,9.64
2023-03-28T16:42:09.995Z,9.65
2023-03-28T16:44:37.746Z,9.64
2023-03-28T16:47:05.715Z,9.67
2023-03-28T16:49:33.412Z,9.69
2023-03-28T16:52:01.096Z,9.68
2023-03-28T16:54:28.799Z,9.66
2023-03-28T16:56:57.924Z,9.67
2023-03-28T16:59:25.822Z,9.65
2023-03-28T17:01:53.820Z,9.64
2023-03-28T17:04:21.556Z,9.65
2023-03-28T17:06:49.282Z,9.64
2023-03-28T17:09:17.007Z,9.64
2023-03-28T17:11:44.748Z,9.61
2023-03-28T17:14:13.835Z,9.62
2023-03-28T17:16:41.872Z,9.60
2023-03-28T17:19:09.625Z,9.58
2023-03-28T17:21:37.491Z,9.54
2023-03-28T17:24:09.088Z,9.57
2023-03-28T17:26:36.770Z,9.53
2023-03-28T17:29:07.278Z,9.51
2023-03-28T17:31:37.460Z,9.50
2023-03-28T17:34:05.504Z,9.51
2023-03-28T17:36:34.756Z,9.53
2023-03-28T17:39:03.310Z,9.51
2023-03-28T17:41:31.545Z,9.48
2023-03-28T17:43:59.878Z,9.46
2023-03-28T17:46:28.004Z,9.43
2023-03-28T17:48:57.184Z,9.41
2023-03-28T17:51:25.171Z,9.40
2023-03-28T17:53:53.260Z,9.38
2023-03-28T17:56:21.056Z,9.34
2023-03-28T17:58:48.737Z,9.33
2023-03-28T18:01:18.433Z,9.34
2023-03-28T18:03:46.842Z,9.33
2023-03-28T18:06:16.008Z,9.31
2023-03-28T18:08:44.671Z,9.32
2023-03-28T18:11:14.573Z,9.33
2023-03-28T18:13:43.225Z,9.34
2023-03-28T18:16:13.485Z,9.37
2023-03-28T18:18:41.496Z,9.36
2023-03-28T18:21:11.132Z,9.36
2023-03-28T18:23:40.391Z,9.40
2023-03-28T18:26:08.327Z,9.41
2023-03-28T18:28:36.873Z,9.40
2023-03-28T18:31:08.815Z,9.43
2023-03-28T18:33:36.584Z,9.43
2023-03-28T18:36:04.671Z,9.42
2023-03-28T18:38:36.909Z,9.40
2023-03-28T18:41:08.256Z,9.37
2023-03-28T18:43:36.159Z,9.34
2023-03-28T18:46:04.592Z,9.33
2023-03-28T18:48:32.661Z,9.33
2023-03-28T18:51:01.606Z,9.34
2023-03-28T18:53:29.956Z,9.35
2023-03-28T18:55:57.750Z,9.33
2023-03-28T18:58:27.145Z,9.35
2023-03-28T19:00:59.300Z,9.33
2023-03-28T19:03:27.768Z,9.30
2023-03-28T19:05:57.342Z,9.28
2023-03-28T19:08:26.371Z,9.33
2023-03-28T19:10:54.315Z,9.31
2023-03-28T19:13:22.208Z,9.31
2023-03-28T19:16:00.270Z,9.27
2023-03-28T19:18:28.557Z,9.26
2023-03-28T19:20:58.662Z,9.23
2023-03-28T19:23:28.053Z,9.23
2023-03-28T19:25:56.111Z,9.24
2023-03-28T19:28:24.219Z,9.26
2023-03-28T19:30:59.162Z,9.29
2023-03-28T19:33:26.985Z,9.30
2023-03-28T19:35:54.860Z,9.29
2023-03-28T19:38:23.166Z,9.28
2023-03-28T19:40:52.192Z,9.28
2023-03-28T19:43:23.678Z,9.27
2023-03-28T19:45:51.388Z,9.24
2023-03-28T19:48:20.508Z,9.23
2023-03-28T19:50:50.134Z,9.21
2023-03-28T19:53:17.888Z,9.17
2023-03-28T19:55:52.235Z,9.16
2023-03-28T19:58:20.021Z,9.14
2023-03-28T20:00:48.757Z,9.07
2023-03-28T20:03:19.392Z,9.00
2023-03-28T20:05:49.530Z,8.97
2023-03-28T20:08:18.318Z,8.96
2023-03-28T20:10:47.850Z,8.94
2023-03-28T20:13:16.096Z,8.94
2023-03-28T20:15:45.715Z,8.95
2023-03-28T20:18:19.804Z,8.95
2023-03-28T20:20:51.947Z,8.96
2023-03-28T20:23:22.146Z,8.94
2023-03-28T20:25:49.848Z,8.87
2023-03-28T20:28:17.534Z,8.86
2023-03-28T20:30:46.389Z,8.83
2023-03-28T20:33:14.238Z,8.74
2023-03-28T20:35:42.693Z,8.69
2023-03-28T20:38:11.852Z,8.66
2023-03-28T20:40:41.083Z,8.58
2023-03-28T20:43:09.990Z,8.54
2023-03-28T20:45:38.890Z,8.59
2023-03-28T20:48:09.726Z,8.56
2023-03-28T20:50:41.374Z,8.51
2023-03-28T20:53:10.952Z,8.44
2023-03-28T20:55:38.881Z,8.42
2023-03-28T20:58:06.860Z,8.38
2023-03-28T21:00:35.758Z,8.42
2023-03-28T21:03:03.760Z,8.46
2023-03-28T21:05:31.720Z,8.45
2023-03-28T21:08:00.315Z,8.44
2023-03-28T21:10:29.884Z,8.39
2023-03-28T21:12:57.568Z,8.35
2023-03-28T21:15:27.302Z,8.28
2023-03-28T21:17:55.027Z,8.22
2023-03-28T21:20:22.728Z,8.21
2023-03-28T21:22:50.807Z,8.19
2023-03-28T21:25:19.137Z,8.22
2023-03-28T21:27:48.288Z,8.20
2023-03-28T21:30:16.606Z,8.22
2023-03-28T21:32:44.310Z,8.22
2023-03-28T21:35:15.221Z,8.16
2023-03-28T21:37:43.110Z,8.17
2023-03-28T21:40:11.329Z,8.17
2023-03-28T21:42:39.149Z,8.14
2023-03-28T21:45:09.526Z,8.08
2023-03-28T21:47:38.138Z,8.03
2023-03-28T21:50:07.389Z,8.01
2023-03-28T21:52:35.531Z,7.98
2023-03-28T21:55:03.372Z,7.99
2023-03-28T21:57:31.108Z,8.03
2023-03-28T21:59:58.813Z,8.03
2023-03-28T22:02:27.926Z,8.00
2023-03-28T22:04:55.673Z,7.98
2023-03-28T22:07:23.396Z,7.95
2023-03-28T22:09:51.074Z,7.90
2023-03-28T22:12:22.795Z,7.84
2023-03-28T22:14:50.675Z,7.81
2023-03-28T22:17:18.552Z,7.81
2023-03-28T22:19:47.625Z,7.79
2023-03-28T22:22:17.827Z,7.75
2023-03-28T22:24:46.026Z,7.77
2023-03-28T22:27:14.190Z,7.72
2023-03-28T22:29:42.184Z,7.84
2023-03-28T22:32:10.482Z,7.87
2023-03-28T22:34:38.121Z,7.87
2023-03-28T22:37:07.212Z,7.88
2023-03-28T22:39:34.933Z,7.88
2023-03-28T22:42:02.697Z,7.90
2023-03-28T22:44:31.030Z,7.95
2023-03-28T22:47:02.303Z,7.93
2023-03-28T22:49:30.078Z,7.91
2023-03-28T22:52:01.835Z,7.88
2023-03-28T22:54:32.134Z,7.82
2023-03-28T22:57:00.848Z,7.84
2023-03-28T22:59:28.760Z,7.86
2023-03-28T23:01:56.858Z,7.87
2023-03-28T23:04:24.738Z,7.83
2023-03-28T23:06:52.773Z,7.81
2023-03-28T23:09:20.996Z,7.76
2023-03-28T23:11:50.119Z,7.74
2023-03-28T23:14:17.754Z,7.72
2023-03-28T23:16:45.867Z,7.72
2023-03-28T23:19:13.643Z,7.67
2023-03-28T23:21:41.595Z,7.68
2023-03-28T23:24:09.836Z,7.67
2023-03-28T23:26:37.584Z,7.68
2023-03-28T23:29:06.989Z,7.71
2023-03-28T23:31:34.771Z,7.70
2023-03-28T23:34:02.447Z,7.67
2023-03-28T23:36:30.204Z,7.65
2023-03-28T23:38:58.408Z,7.66
2023-03-28T23:41:26.454Z,7.66
2023-03-28T23:43:54.210Z,7.67
2023-03-28T23:46:23.993Z,7.66
2023-03-28T23:48:51.965Z,7.67
2023-03-28T23:51:19.644Z,7.63
2023-03-28T23:53:47.319Z,7.59
2023-03-28T23:56:15.466Z,7.58
2023-03-28T23:58:43.213Z,7.56
